Time;durP1;ratioP1;P1;durP2;ratioP2;P2;SDS_P1;SDS_P2;PMS_P1;PMS_P2;Temp;Humidity;BMP_temperature;BMP_pressure;BME280_temperature;BME280_humidity;BME280_pressure;Samples;Min_cycle;Max_cycle;Signal;HPM_P1;HPM_P2
2022/05/01 10:24:57;;;;;;;22.65;8.38;;;;;;;;;;5100927;27;20806;-69
2022/05/01 10:28:12;;;;;;;18.27;7.57;;;24.90;99.90;;;;;;5072352;28;20427;-70
2022/05/01 10:34:28;;;;;;;28.30;9.25;;;24.80;99.90;;;;;;5042039;28;20263;-70
2022/05/01 10:37:18;;;;;;;25.00;8.57;;;24.70;99.90;;;;;;5043744;28;20187;-71
2022/05/01 10:39:49;;;;;;;22.90;7.28;;;24.70;99.90;;;;;;5078741;28;20281;-71
2022/05/01 10:42:36;;;;;;;21.52;8.95;;;24.70;99.90;;;;;;5063370;28;20247;-71
2022/05/01 10:45:25;;;;;;;24.17;8.57;;;24.50;99.90;;;;;;5055879;28;20187;-70
2022/05/01 10:47:54;;;;;;;26.33;8.80;;;24.50;99.90;;;;;;5051916;28;20541;-71
2022/05/01 10:50:27;;;;;;;28.90;9.00;;;24.50;99.90;;;;;;5044857;28;20188;-71
2022/05/01 10:53:13;;;;;;;21.60;8.35;;;24.70;99.90;;;;;;5059491;28;20559;-71
2022/05/01 10:56:22;;;;;;;21.17;7.53;;;24.70;99.90;;;;;;5057802;28;20520;-70
2022/05/01 10:58:49;;;;;;;17.88;7.78;;;24.60;99.90;;;;;;5083992;28;20190;-71
2022/05/01 11:01:15;;;;;;;21.70;6.88;;;24.70;99.90;;;;;;5034488;28;20290;-70
2022/05/01 11:03:52;;;;;;;28.63;8.15;;;24.70;99.90;;;;;;5053307;28;20194;-71
2022/05/01 11:06:21;;;;;;;19.95;8.18;;;24.70;99.90;;;;;;5044550;28;20578;-70
2022/05/01 11:08:48;;;;;;;23.73;7.53;;;24.70;99.90;;;;;;5047439;28;20204;-70
2022/05/01 11:11:20;;;;;;;24.05;8.30;;;24.60;99.90;;;;;;5079688;28;20195;-72
2022/05/01 11:13:49;;;;;;;23.67;8.25;;;24.40;99.90;;;;;;5047132;28;20252;-70
2022/05/01 11:16:16;;;;;;;27.90;7.80;;;24.40;99.90;;;;;;5059513;28;20533;-71
2022/05/01 11:18:42;;;;;;;20.10;7.93;;;24.40;99.90;;;;;;5042388;28;20187;-71
2022/05/01 11:21:29;;;;;;;24.50;8.32;;;24.40;99.90;;;;;;5050285;28;20180;-71
2022/05/01 11:24:04;;;;;;;22.38;7.45;;;24.50;99.90;;;;;;5065126;28;20299;-71
2022/05/01 11:26:32;;;;;;;22.83;7.78;;;24.50;99.90;;;;;;5047583;28;20865;-71
2022/05/01 11:29:19;;;;;;;17.30;6.47;;;24.50;99.90;;;;;;5073363;28;20190;-72
2022/05/01 11:31:47;;;;;;;14.98;6.57;;;24.60;99.90;;;;;;5080905;28;20212;-72
2022/05/01 11:34:22;;;;;;;20.23;8.45;;;24.60;99.90;;;;;;5044289;28;20211;-72
2022/05/01 11:37:15;;;;;;;24.83;8.55;;;24.70;99.90;;;;;;5034067;28;20238;-72
2022/05/01 11:39:52;;;;;;;30.10;8.30;;;24.60;99.90;;;;;;5033976;28;21989;-72
2022/05/01 11:42:25;;;;;;;24.15;8.88;;;24.60;99.90;;;;;;5031759;28;20330;-72
2022/05/01 11:44:55;;;;;;;20.55;8.55;;;24.50;99.90;;;;;;5037491;28;21079;-72
2022/05/01 11:47:28;;;;;;;26.92;8.85;;;24.50;99.90;;;;;;5031181;28;20683;-69
2022/05/01 11:49:55;;;;;;;23.70;8.05;;;24.50;99.90;;;;;;5042802;28;20191;-69
2022/05/01 11:52:24;;;;;;;25.25;7.68;;;24.50;99.90;;;;;;5049185;28;20214;-72
2022/05/01 11:54:54;;;;;;;26.17;9.23;;;24.50;99.90;;;;;;5042249;28;20618;-70
2022/05/01 12:03:07;;;;;;;27.20;7.90;;;24.60;99.90;;;;;;5048858;28;20196;-71
2022/05/01 12:05:50;;;;;;;24.80;8.15;;;24.60;99.90;;;;;;5023350;28;20208;-71
2022/05/01 12:08:21;;;;;;;17.40;7.38;;;24.50;99.90;;;;;;5038000;28;20194;-71
2022/05/01 12:10:48;;;;;;;17.75;7.43;;;24.40;99.90;;;;;;5060148;28;20216;-71
2022/05/01 12:13:30;;;;;;;21.52;8.38;;;24.30;99.90;;;;;;5040984;28;20591;-70
2022/05/01 12:15:57;;;;;;;20.88;7.20;;;24.30;99.90;;;;;;5039093;28;20184;-70
2022/05/01 12:18:30;;;;;;;18.92;7.80;;;24.50;99.90;;;;;;5033612;28;20545;-71
2022/05/01 12:21:00;;;;;;;22.55;7.68;;;24.40;99.90;;;;;;5042643;28;20199;-71
2022/05/01 12:23:26;;;;;;;24.48;7.60;;;24.40;99.90;;;;;;5039359;28;20200;-71
2022/05/01 12:25:54;;;;;;;19.02;7.68;;;24.30;99.90;;;;;;5046646;28;20912;-71
2022/05/01 12:28:24;;;;;;;18.88;8.80;;;24.30;99.90;;;;;;5037270;28;20245;-71
2022/05/01 12:30:51;;;;;;;24.15;8.02;;;24.20;99.90;;;;;;5070830;28;20616;-70
2022/05/01 12:33:26;;;;;;;20.27;8.57;;;24.30;99.90;;;;;;5057418;28;20211;-72
2022/05/01 12:35:59;;;;;;;22.80;8.18;;;24.20;99.90;;;;;;5034889;28;20248;-71
2022/05/01 12:38:30;;;;;;;26.83;7.35;;;24.20;99.90;;;;;;5037637;28;20184;-72
2022/05/01 12:44:01;;;;;;;28.42;8.25;;;24.20;99.90;;;;;;5069093;28;20187;-71
2022/05/01 12:46:30;;;;;;;21.23;8.40;;;24.10;99.90;;;;;;5037637;28;20626;-72
2022/05/01 12:48:59;;;;;;;20.90;7.32;;;24.00;99.90;;;;;;5065067;28;20679;-71
2022/05/01 12:51:41;;;;;;;21.33;7.70;;;24.10;99.90;;;;;;5037151;28;20192;-72
2022/05/01 12:54:18;;;;;;;25.40;7.10;;;24.30;99.90;;;;;;5042526;28;20243;-72
2022/05/01 12:56:47;;;;;;;28.20;8.48;;;24.30;99.90;;;;;;5029974;28;20191;-71
2022/05/01 12:59:30;;;;;;;31.52;8.50;;;24.20;99.90;;;;;;5044126;28;20254;-72
2022/05/01 13:01:58;;;;;;;22.75;8.00;;;24.30;99.90;;;;;;5055104;28;20234;-70
2022/05/01 13:04:31;;;;;;;22.95;7.78;;;24.20;99.90;;;;;;5047740;28;20241;-70
2022/05/01 13:07:01;;;;;;;19.63;6.75;;;24.10;99.90;;;;;;5039304;28;20215;-70
2022/05/01 13:09:28;;;;;;;26.42;7.95;;;24.10;99.90;;;;;;5062627;28;20198;-68
2022/05/01 13:12:13;;;;;;;20.27;7.57;;;24.00;99.90;;;;;;5037506;28;20276;-70
2022/05/01 13:14:39;;;;;;;22.98;7.50;;;24.00;99.90;;;;;;5040869;28;20230;-70
2022/05/01 13:17:15;;;;;;;23.77;8.77;;;24.00;99.90;;;;;;5037017;28;20488;-69
2022/05/01 13:19:43;;;;;;;21.25;9.13;;;24.00;99.90;;;;;;5037308;28;20183;-69
2022/05/01 13:22:11;;;;;;;24.13;8.35;;;23.80;99.90;;;;;;5044039;28;20217;-69
2022/05/01 13:24:40;;;;;;;25.08;8.50;;;23.70;99.90;;;;;;5043869;28;20243;-69
2022/05/01 13:27:09;;;;;;;22.25;9.35;;;23.70;99.90;;;;;;5069213;28;20977;-70
2022/05/01 13:29:39;;;;;;;19.42;8.75;;;23.60;99.90;;;;;;5029323;28;20596;-70
2022/05/01 13:32:09;;;;;;;20.00;8.68;;;23.60;99.90;;;;;;5024464;28;20211;-69
2022/05/01 13:34:41;;;;;;;25.42;8.77;;;23.50;99.90;;;;;;5039633;28;20798;-70
2022/05/01 13:37:10;;;;;;;21.10;8.95;;;23.40;99.90;;;;;;5044661;28;20211;-70
2022/05/01 13:45:08;;;;;;;21.60;8.18;;;23.20;99.90;;;;;;5039501;28;20695;-69
2022/05/01 13:47:38;;;;;;;23.30;8.95;;;23.20;99.90;;;;;;5066512;28;20536;-69
2022/05/01 13:50:06;;;;;;;26.02;9.75;;;23.10;99.90;;;;;;5035040;28;20198;-70
2022/05/01 13:52:35;;;;;;;27.25;9.35;;;23.00;99.90;;;;;;5028288;28;21247;-69
2022/05/01 13:55:03;;;;;;;24.55;9.75;;;23.20;99.90;;;;;;5041278;28;20195;-70
2022/05/01 13:57:31;;;;;;;21.17;9.10;;;23.10;99.90;;;;;;5059798;28;20210;-70
2022/05/01 14:00:00;;;;;;;32.72;9.52;;;23.10;99.90;;;;;;5066430;28;20690;-70
2022/05/01 14:02:27;;;;;;;26.02;9.23;;;23.10;99.90;;;;;;5034527;28;20188;-70
2022/05/01 14:04:55;;;;;;;27.27;9.50;;;23.10;99.90;;;;;;5044475;28;20188;-70
2022/05/01 14:07:23;;;;;;;29.38;9.60;;;23.20;99.90;;;;;;5038538;28;20234;-69
2022/05/01 14:09:51;;;;;;;21.80;8.35;;;23.10;99.90;;;;;;5035895;28;20192;-69
2022/05/01 14:12:18;;;;;;;20.98;9.20;;;22.90;99.90;;;;;;5058605;28;20980;-70
2022/05/01 14:14:48;;;;;;;21.35;9.77;;;22.70;99.90;;;;;;5040975;28;20212;-69
2022/05/01 14:17:16;;;;;;;26.13;10.02;;;22.70;99.90;;;;;;5049073;28;20279;-70
2022/05/01 14:19:47;;;;;;;25.10;9.82;;;22.70;99.90;;;;;;5032459;28;20654;-70
2022/05/01 14:22:19;;;;;;;24.52;9.40;;;22.60;99.90;;;;;;5035614;28;20309;-70
2022/05/01 14:24:52;;;;;;;24.25;9.48;;;22.50;99.90;;;;;;5048446;28;20271;-70
2022/05/01 14:27:22;;;;;;;24.55;10.13;;;22.40;99.90;;;;;;5060797;28;20219;-70
2022/05/01 14:29:56;;;;;;;25.75;9.45;;;22.30;99.90;;;;;;5039096;28;20747;-70
2022/05/01 14:32:52;;;;;;;27.65;10.32;;;22.20;99.90;;;;;;5039117;28;20244;-70
2022/05/01 14:35:29;;;;;;;24.00;9.77;;;22.10;99.90;;;;;;5042244;28;20190;-69
2022/05/01 14:38:06;;;;;;;22.70;9.85;;;22.10;99.90;;;;;;5036656;28;20642;-70
2022/05/01 14:40:37;;;;;;;28.90;10.40;;;22.10;99.90;;;;;;5047411;28;20191;-69
2022/05/01 14:43:16;;;;;;;25.90;9.77;;;22.00;99.90;;;;;;5063370;28;20219;-70
2022/05/01 14:45:54;;;;;;;29.87;10.33;;;22.00;99.90;;;;;;5046505;28;20249;-70
2022/05/01 14:49:26;;;;;;;23.43;10.40;;;22.10;99.90;;;;;;5059198;28;20191;-70
2022/05/01 14:52:01;;;;;;;17.97;8.97;;;22.00;99.90;;;;;;5033888;28;21185;-69
2022/05/01 14:54:40;;;;;;;22.48;8.60;;;21.90;99.90;;;;;;5026714;28;20241;-69
2022/05/01 14:57:16;;;;;;;21.17;9.50;;;21.80;99.90;;;;;;5043741;28;20191;-69
2022/05/01 15:08:34;;;;;;;23.87;9.30;;;21.60;99.90;;;;;;5037789;28;20267;-69
2022/05/01 15:11:01;;;;;;;20.00;9.63;;;21.60;99.90;;;;;;5032079;28;20223;-69
2022/05/01 15:13:28;;;;;;;23.27;8.83;;;21.70;99.90;;;;;;5038449;28;20222;-69
2022/05/01 15:16:16;;;;;;;21.00;8.93;;;21.80;99.90;;;;;;5037609;28;20854;-69
2022/05/01 15:18:51;;;;;;;28.23;9.03;;;21.70;99.90;;;;;;5044149;28;20180;-69
2022/05/01 15:24:22;;;;;;;20.17;9.57;;;21.60;99.90;;;;;;5035865;28;20913;-69
2022/05/01 15:27:34;;;;;;;29.87;9.63;;;21.60;99.90;;;;;;5073239;28;20196;-69
2022/05/01 15:30:06;;;;;;;32.90;9.90;;;21.50;99.90;;;;;;5044886;28;20548;-69
2022/05/01 15:35:41;;;;;;;20.93;9.83;;;21.50;99.90;;;;;;5030634;28;20217;-69
2022/05/01 15:38:39;;;;;;;29.73;10.20;;;21.40;99.90;;;;;;5027641;28;20192;-69
2022/05/01 15:42:05;;;;;;;22.80;9.77;;;21.30;99.90;;;;;;5036628;28;20218;-69
2022/05/01 15:44:34;;;;;;;27.13;10.37;;;21.20;99.90;;;;;;5055998;28;20206;-70
2022/05/01 15:47:01;;;;;;;24.80;10.07;;;21.10;99.90;;;;;;5045621;28;20192;-69
2022/05/01 15:55:09;;;;;;;25.83;9.83;;;20.90;99.90;;;;;;5039225;28;20208;-69
2022/05/01 15:57:39;;;;;;;22.77;9.97;;;20.90;99.90;;;;;;5036356;28;20195;-70
2022/05/01 16:00:23;;;;;;;24.67;9.70;;;20.80;99.90;;;;;;5038991;28;20211;-68
2022/05/01 16:02:52;;;;;;;22.23;9.73;;;20.80;99.90;;;;;;5046892;28;20195;-70
2022/05/01 16:05:18;;;;;;;30.77;9.43;;;20.90;99.90;;;;;;5057699;28;20668;-69
2022/05/01 16:08:26;;;;;;;24.93;9.43;;;20.80;99.90;;;;;;5021678;28;20513;-69
2022/05/01 16:11:24;;;;;;;21.17;9.23;;;20.70;99.90;;;;;;5033390;28;20266;-69
2022/05/01 16:14:15;;;;;;;23.37;8.83;;;20.50;99.90;;;;;;5044687;28;20215;-69
2022/05/01 16:17:14;;;;;;;23.03;8.73;;;20.40;99.90;;;;;;5055141;28;20703;-69
2022/05/01 16:20:05;;;;;;;20.23;8.33;;;20.30;99.90;;;;;;5038273;28;20821;-69
2022/05/01 16:22:49;;;;;;;20.53;8.80;;;20.20;99.90;;;;;;5053382;28;20216;-69
2022/05/01 16:25:24;;;;;;;18.47;8.27;;;20.00;99.90;;;;;;5048614;28;20647;-69
2022/05/01 16:28:24;;;;;;;21.60;8.73;;;19.80;99.90;;;;;;5047293;28;20183;-69
2022/05/01 16:31:00;;;;;;;19.37;8.63;;;19.60;99.90;;;;;;5053379;28;20207;-69
2022/05/01 16:33:55;;;;;;;18.20;8.90;;;19.50;99.90;;;;;;5045958;28;20203;-69
2022/05/01 16:36:31;;;;;;;23.60;9.00;;;19.40;99.90;;;;;;5072379;28;20196;-72
2022/05/01 16:38:59;;;;;;;21.43;9.23;;;19.30;99.90;;;;;;5058129;28;20213;-69
2022/05/01 16:41:34;;;;;;;24.40;9.93;;;19.30;99.90;;;;;;5042675;28;20819;-69
2022/05/01 16:44:02;;;;;;;16.47;9.07;;;19.30;99.90;;;;;;5047325;28;20190;-69
2022/05/01 16:46:32;;;;;;;19.03;8.67;;;19.30;99.90;;;;;;5041583;28;20196;-72
2022/05/01 16:49:06;;;;;;;17.17;8.60;;;19.20;99.90;;;;;;5041095;28;20203;-69
2022/05/01 16:51:39;;;;;;;18.40;8.43;;;19.00;99.90;;;;;;5037366;28;20190;-69
2022/05/01 16:54:11;;;;;;;17.33;8.30;;;18.90;99.90;;;;;;5068296;28;20229;-71
2022/05/01 16:56:39;;;;;;;17.43;8.43;;;18.80;99.90;;;;;;5035335;28;20279;-72
2022/05/01 16:59:10;;;;;;;17.43;8.37;;;18.70;99.90;;;;;;5055724;28;20194;-73
2022/05/01 17:01:48;;;;;;;15.43;7.40;;;18.60;99.90;;;;;;5074760;28;20656;-72
2022/05/01 17:04:44;;;;;;;16.20;7.00;;;18.40;99.90;;;;;;5035733;28;20187;-73
2022/05/01 17:07:42;;;;;;;17.83;7.67;;;18.20;99.90;;;;;;5045466;28;20268;-74
2022/05/01 17:10:42;;;;;;;14.47;6.80;;;18.20;99.90;;;;;;5027394;28;20199;-73
2022/05/01 17:13:38;;;;;;;18.33;7.30;;;18.20;99.90;;;;;;5039287;28;20294;-73
2022/05/01 17:16:18;;;;;;;25.27;8.90;;;18.20;99.90;;;;;;5034279;28;21053;-73
2022/05/01 17:18:56;;;;;;;20.07;8.47;;;18.20;99.90;;;;;;5048002;28;20199;-73
2022/05/01 17:21:31;;;;;;;17.60;8.30;;;18.10;99.90;;;;;;5037000;28;20201;-73
2022/05/01 17:24:10;;;;;;;18.70;8.00;;;18.10;99.90;;;;;;5033554;28;20200;-73
2022/05/01 17:26:45;;;;;;;16.87;7.47;;;17.90;99.90;;;;;;5023780;28;20705;-73
2022/05/01 17:29:14;;;;;;;17.10;8.07;;;17.80;99.90;;;;;;5058133;28;20257;-73
2022/05/01 17:32:06;;;;;;;19.03;7.70;;;17.80;99.90;;;;;;5057341;28;20211;-73
2022/05/01 17:34:33;;;;;;;20.40;7.43;;;17.70;99.90;;;;;;5021805;28;20214;-73
2022/05/01 17:37:02;;;;;;;19.17;7.47;;;17.80;99.90;;;;;;5057131;28;20216;-73
2022/05/01 17:39:32;;;;;;;14.80;7.07;;;17.70;99.90;;;;;;5037040;28;20190;-73
2022/05/01 17:42:04;;;;;;;21.87;8.00;;;17.70;99.90;;;;;;5021649;28;20234;-73
2022/05/01 17:44:37;;;;;;;15.87;7.60;;;17.60;99.90;;;;;;5021934;28;20200;-73
2022/05/01 17:47:07;;;;;;;22.13;8.20;;;17.50;99.90;;;;;;5059442;28;20319;-73
2022/05/01 17:49:37;;;;;;;17.93;7.97;;;17.60;99.90;;;;;;5047886;28;20206;-73
2022/05/01 17:52:06;;;;;;;15.27;7.17;;;17.30;99.90;;;;;;5044161;28;20195;-73
2022/05/01 17:54:36;;;;;;;16.17;8.23;;;17.30;99.90;;;;;;5043488;28;20681;-73
2022/05/01 17:57:10;;;;;;;20.93;8.33;;;17.40;99.90;;;;;;5028474;28;20198;-73
2022/05/01 17:59:37;;;;;;;18.23;7.70;;;17.40;99.90;;;;;;5040673;28;20275;-74
2022/05/01 18:02:55;;;;;;;23.03;7.93;;;17.30;99.90;;;;;;5037340;28;20194;-73
2022/05/01 18:12:03;;;;;;;19.80;7.77;;;17.20;99.90;;;;;;5029352;28;20199;-73
2022/05/01 18:15:07;;;;;;;16.90;7.47;;;17.10;99.90;;;;;;5031770;28;20250;-74
2022/05/01 18:18:24;;;;;;;22.83;9.37;;;17.20;99.90;;;;;;5027953;28;20267;-73
2022/05/01 18:21:04;;;;;;;18.97;8.03;;;17.20;99.90;;;;;;5018487;28;20597;-74
2022/05/01 18:23:38;;;;;;;19.43;7.93;;;17.20;99.90;;;;;;5059516;28;20278;-74
2022/05/01 18:26:20;;;;;;;18.43;7.67;;;17.10;99.90;;;;;;5061067;28;20240;-74
2022/05/01 18:33:26;;;;;;;22.57;8.20;;;17.20;99.90;;;;;;5037509;28;20215;-73
2022/05/01 18:36:15;;;;;;;19.63;8.37;;;17.20;99.90;;;;;;5065358;28;20831;-74
2022/05/01 18:38:50;;;;;;;22.53;7.60;;;17.20;99.90;;;;;;5073908;28;20184;-74
2022/05/01 18:41:33;;;;;;;22.43;7.53;;;17.30;99.90;;;;;;5032533;28;20223;-74
2022/05/01 18:44:05;;;;;;;15.33;7.07;;;17.20;99.90;;;;;;5073634;28;20195;-74
2022/05/01 18:46:33;;;;;;;16.80;6.70;;;17.20;99.90;;;;;;5034431;28;20548;-74
2022/05/01 18:49:04;;;;;;;15.73;6.87;;;17.20;99.90;;;;;;5045875;28;20197;-74
2022/05/01 18:51:39;;;;;;;15.77;6.60;;;17.10;99.90;;;;;;5042156;28;20199;-74
2022/05/01 18:54:15;;;;;;;15.97;6.40;;;17.00;99.90;;;;;;5040145;28;20272;-74
2022/05/01 18:56:50;;;;;;;16.80;6.47;;;16.90;99.90;;;;;;5043358;28;20283;-74
2022/05/01 18:59:21;;;;;;;19.17;6.10;;;16.80;99.90;;;;;;5073895;28;20215;-74
2022/05/01 19:01:51;;;;;;;16.80;6.50;;;16.80;99.90;;;;;;5045854;28;21009;-74
2022/05/01 19:04:24;;;;;;;13.13;6.00;;;16.80;99.90;;;;;;5043166;28;20767;-74
2022/05/01 19:07:17;;;;;;;13.40;6.17;;;16.70;99.90;;;;;;5042951;28;20220;-74
2022/05/01 19:10:08;;;;;;;13.47;6.50;;;16.60;99.90;;;;;;5058027;28;20276;-74
2022/05/01 19:13:02;;;;;;;13.70;6.63;;;16.50;99.90;;;;;;5037408;28;20191;-74
2022/05/01 19:16:05;;;;;;;17.03;7.93;;;16.40;99.90;;;;;;5037992;28;20193;-74
2022/05/01 19:19:19;;;;;;;22.30;7.73;;;16.30;99.90;;;;;;5040259;28;20264;-74
2022/05/01 19:22:29;;;;;;;22.17;8.23;;;16.30;99.90;;;;;;5029622;28;20282;-74
2022/05/01 19:28:52;;;;;;;21.27;9.57;;;16.20;99.90;;;;;;5067598;28;20180;-74
2022/05/01 19:31:50;;;;;;;24.50;9.83;;;16.20;99.90;;;;;;5045071;28;20180;-74
2022/05/01 19:34:20;;;;;;;25.07;9.70;;;16.20;99.90;;;;;;5032660;28;21019;-74
2022/05/01 19:37:36;;;;;;;23.17;9.83;;;16.10;99.90;;;;;;5056625;28;20758;-74
2022/05/01 19:40:11;;;;;;;24.53;10.33;;;16.00;99.90;;;;;;5006710;28;20193;-74
2022/05/01 19:43:11;;;;;;;17.93;8.93;;;16.00;99.90;;;;;;4991602;28;20195;-73
2022/05/01 19:46:35;;;;;;;26.40;9.43;;;16.10;99.90;;;;;;5004101;28;20212;-74
2022/05/01 19:52:57;;;;;;;24.07;10.27;;;16.20;99.90;;;;;;5022057;28;20196;-74
2022/05/01 19:55:27;;;;;;;28.00;10.37;;;16.20;99.90;;;;;;5005060;28;20188;-74
2022/05/01 19:57:59;;;;;;;23.40;10.53;;;16.20;99.90;;;;;;5016587;28;20302;-74
2022/05/01 20:00:29;;;;;;;25.73;10.27;;;16.20;99.90;;;;;;5020315;28;20189;-74
2022/05/01 20:03:06;;;;;;;22.70;10.13;;;16.10;99.90;;;;;;5019625;28;20196;-74
2022/05/01 20:05:34;;;;;;;28.13;9.87;;;16.10;99.90;;;;;;4999646;28;20208;-74
2022/05/01 20:08:05;;;;;;;19.10;9.90;;;16.20;99.90;;;;;;5022655;28;20195;-74
2022/05/01 20:10:36;;;;;;;21.23;9.20;;;16.20;99.90;;;;;;5016390;28;20208;-74
2022/05/01 20:13:08;;;;;;;22.13;9.43;;;16.20;99.90;;;;;;4993598;28;20192;-74
2022/05/01 20:15:59;;;;;;;22.37;10.27;;;16.10;99.90;;;;;;5019698;28;20192;-74
2022/05/01 20:19:09;;;;;;;18.97;8.57;;;16.10;99.90;;;;;;5021323;28;20192;-74
2022/05/01 20:21:55;;;;;;;18.90;8.00;;;16.20;99.90;;;;;;5043230;28;20674;-74
2022/05/01 20:24:44;;;;;;;20.00;7.67;;;16.10;99.90;;;;;;5043442;28;20750;-74
2022/05/01 20:28:25;;;;;;;20.93;8.03;;;16.00;99.90;;;;;;5044262;28;21232;-74
2022/05/01 20:31:25;;;;;;;21.43;7.70;;;16.00;99.90;;;;;;5031290;28;20211;-74
2022/05/01 20:34:35;;;;;;;16.03;7.80;;;15.90;99.90;;;;;;5026626;28;20234;-73
2022/05/01 20:37:37;;;;;;;14.50;7.37;;;16.00;99.90;;;;;;5027216;28;20645;-74
2022/05/01 20:40:20;;;;;;;13.33;7.13;;;16.10;99.90;;;;;;5053040;28;20270;-73
2022/05/01 20:43:12;;;;;;;15.77;6.83;;;16.00;99.90;;;;;;5077664;28;20187;-73
2022/05/01 20:46:02;;;;;;;15.73;6.77;;;16.00;99.90;;;;;;5066260;28;20223;-74
2022/05/01 20:48:45;;;;;;;15.43;6.60;;;16.00;99.90;;;;;;5039673;28;20237;-74
2022/05/01 20:51:16;;;;;;;18.10;6.80;;;16.00;99.90;;;;;;5069672;28;21338;-74
2022/05/01 20:54:14;;;;;;;19.23;6.43;;;16.00;99.90;;;;;;5039345;28;20234;-74
2022/05/01 20:56:45;;;;;;;13.97;6.23;;;15.90;99.90;;;;;;5030485;28;20192;-74
2022/05/01 20:59:19;;;;;;;13.50;6.07;;;15.80;99.90;;;;;;5040234;28;20188;-74
2022/05/01 21:01:50;;;;;;;17.03;6.27;;;15.70;99.90;;;;;;5064378;28;20258;-73
2022/05/01 21:04:19;;;;;;;18.20;5.87;;;15.60;99.90;;;;;;5035740;28;20218;-74
2022/05/01 21:06:50;;;;;;;12.97;5.33;;;15.70;99.90;;;;;;5042109;28;20186;-74
2022/05/01 21:09:18;;;;;;;14.00;6.27;;;15.70;99.90;;;;;;5068865;28;20713;-74
2022/05/01 21:11:53;;;;;;;13.03;5.63;;;15.70;99.90;;;;;;5043185;28;20191;-73
2022/05/01 21:14:23;;;;;;;14.77;5.63;;;15.70;99.90;;;;;;5063196;28;20322;-74
2022/05/01 21:16:52;;;;;;;14.87;5.90;;;15.70;99.90;;;;;;5040207;28;20241;-74
2022/05/01 21:19:19;;;;;;;13.50;5.67;;;15.60;99.90;;;;;;5038261;28;20184;-73
2022/05/01 21:21:47;;;;;;;17.57;5.90;;;15.60;99.90;;;;;;5069287;28;20187;-74
2022/05/01 21:24:16;;;;;;;14.27;5.40;;;15.50;99.90;;;;;;5050693;28;20203;-74
2022/05/01 21:26:42;;;;;;;14.73;5.97;;;15.60;99.90;;;;;;5065835;28;20194;-74
2022/05/01 21:34:40;;;;;;;15.17;5.10;;;15.60;99.90;;;;;;5036364;28;20215;-74
2022/05/01 21:37:06;;;;;;;14.93;5.43;;;15.70;99.90;;;;;;5075606;28;20744;-74
2022/05/01 21:39:33;;;;;;;13.17;5.33;;;15.70;99.90;;;;;;5042373;28;20207;-73
2022/05/01 21:41:59;;;;;;;14.57;5.13;;;15.70;99.90;;;;;;5052976;28;20185;-73
2022/05/01 21:44:26;;;;;;;17.80;4.87;;;15.70;99.90;;;;;;5016573;28;20226;-74
2022/05/01 21:46:54;;;;;;;13.53;5.53;;;15.60;99.90;;;;;;5034649;28;20195;-73
2022/05/01 21:49:25;;;;;;;12.73;4.97;;;15.70;99.90;;;;;;5041191;28;20253;-74
2022/05/01 21:51:52;;;;;;;13.77;4.90;;;15.70;99.90;;;;;;5038638;28;20207;-74
2022/05/01 21:54:19;;;;;;;14.30;4.90;;;15.60;99.90;;;;;;5035867;28;20903;-74
2022/05/01 21:56:46;;;;;;;11.77;4.80;;;15.60;99.90;;;;;;5039033;28;20199;-74
2022/05/01 21:59:12;;;;;;;10.90;4.50;;;15.60;99.90;;;;;;5049689;28;20179;-74
2022/05/01 22:01:41;;;;;;;12.23;4.50;;;15.60;99.90;;;;;;5055491;28;20184;-74
2022/05/01 22:04:10;;;;;;;12.27;4.40;;;15.60;99.90;;;;;;5077965;28;20191;-74
2022/05/01 22:06:42;;;;;;;10.70;5.10;;;15.60;99.90;;;;;;5042186;28;20196;-74
2022/05/01 22:09:08;;;;;;;12.80;5.67;;;15.70;99.90;;;;;;5048830;28;20187;-74
2022/05/01 22:11:39;;;;;;;12.67;5.20;;;15.80;99.90;;;;;;5056137;28;20223;-74
2022/05/01 22:14:06;;;;;;;14.47;5.80;;;16.00;99.90;;;;;;5050762;28;20218;-74
2022/05/01 22:16:32;;;;;;;12.43;5.93;;;16.00;99.90;;;;;;5038088;28;20192;-74
2022/05/01 22:19:05;;;;;;;16.77;5.20;;;16.10;99.90;;;;;;5044446;28;20192;-74
2022/05/01 22:21:32;;;;;;;13.57;5.13;;;16.10;99.90;;;;;;5037185;28;20206;-74
2022/05/01 22:24:00;;;;;;;16.37;5.67;;;16.00;99.90;;;;;;5056993;28;20215;-74
2022/05/01 22:26:29;;;;;;;17.30;5.83;;;16.00;99.90;;;;;;5035268;28;20270;-74
2022/05/01 22:28:59;;;;;;;11.37;5.57;;;16.00;99.90;;;;;;5069181;28;20192;-74
2022/05/01 22:31:27;;;;;;;12.27;5.83;;;16.00;99.90;;;;;;5054451;28;20786;-74
2022/05/01 22:33:53;;;;;;;11.73;5.43;;;15.90;99.90;;;;;;5059084;28;20203;-74
2022/05/01 22:39:08;;;;;;;12.20;5.40;;;15.70;99.90;;;;;;5074080;28;20211;-74
2022/05/01 22:41:37;;;;;;;17.37;5.90;;;15.70;99.90;;;;;;5037945;28;20176;-73
2022/05/01 22:44:04;;;;;;;14.73;6.23;;;15.60;99.90;;;;;;5053972;28;20200;-74
2022/05/01 22:46:36;;;;;;;12.00;5.70;;;15.60;99.90;;;;;;5070637;28;20218;-74
2022/05/01 22:49:06;;;;;;;12.30;6.07;;;15.70;99.90;;;;;;5058203;28;20191;-74
2022/05/01 22:51:37;;;;;;;13.87;5.70;;;15.70;99.90;;;;;;5062104;28;20226;-74
2022/05/01 22:54:04;;;;;;;14.27;5.57;;;15.80;99.90;;;;;;5065177;28;20574;-74
2022/05/01 22:56:32;;;;;;;13.33;5.50;;;15.80;99.90;;;;;;5047107;28;20278;-74
2022/05/01 22:58:59;;;;;;;11.47;5.73;;;15.90;99.90;;;;;;5037531;28;20215;-74
2022/05/01 23:01:28;;;;;;;13.90;5.90;;;15.90;99.90;;;;;;5046937;28;20530;-71
2022/05/01 23:03:57;;;;;;;16.10;6.10;;;15.90;99.90;;;;;;5061450;28;21033;-74
2022/05/01 23:06:27;;;;;;;13.23;6.30;;;15.90;99.90;;;;;;5072006;28;20214;-73
2022/05/01 23:08:55;;;;;;;16.23;6.30;;;15.90;99.90;;;;;;5062054;28;20274;-74
2022/05/01 23:11:21;;;;;;;15.63;6.50;;;16.00;99.90;;;;;;5045544;28;20810;-74
2022/05/01 23:13:48;;;;;;;11.70;5.90;;;15.90;99.90;;;;;;5038413;28;20510;-74
2022/05/01 23:16:15;;;;;;;14.03;6.60;;;15.80;99.90;;;;;;5039350;28;20631;-74
2022/05/01 23:18:42;;;;;;;14.33;5.93;;;15.80;99.90;;;;;;5073433;28;20187;-74
2022/05/01 23:21:11;;;;;;;13.47;6.23;;;15.70;99.90;;;;;;5041636;28;20271;-74
2022/05/01 23:23:41;;;;;;;8.80;5.87;;;15.80;99.90;;;;;;5038137;28;20207;-74
2022/05/01 23:26:10;;;;;;;16.63;5.83;;;15.80;99.90;;;;;;5039884;28;20192;-74
2022/05/01 23:28:37;;;;;;;13.27;5.83;;;15.80;99.90;;;;;;5065668;28;20188;-74
2022/05/01 23:31:07;;;;;;;11.87;5.17;;;15.80;99.90;;;;;;5041055;28;20538;-74
2022/05/01 23:33:34;;;;;;;12.30;5.20;;;15.60;99.90;;;;;;5048312;28;20239;-74
2022/05/01 23:36:01;;;;;;;12.70;5.80;;;15.60;99.90;;;;;;5040768;28;20223;-74
2022/05/01 23:38:28;;;;;;;14.60;5.53;;;15.40;99.90;;;;;;5065112;28;20290;-73
2022/05/01 23:41:00;;;;;;;17.87;6.10;;;15.30;99.90;;;;;;5039216;28;20180;-74
2022/05/01 23:43:28;;;;;;;13.93;5.67;;;15.20;99.90;;;;;;5044936;28;20223;-74
2022/05/01 23:45:56;;;;;;;15.53;5.73;;;15.10;99.90;;;;;;5040813;28;20202;-74
2022/05/01 23:48:24;;;;;;;12.27;5.77;;;15.00;99.90;;;;;;5046800;28;20196;-73
2022/05/01 23:50:54;;;;;;;15.00;6.03;;;15.00;99.90;;;;;;5069499;28;20736;-74
2022/05/01 23:53:23;;;;;;;11.00;5.87;;;14.80;99.90;;;;;;5026977;28;20303;-74
2022/05/01 23:55:55;;;;;;;14.90;6.00;;;14.80;99.90;;;;;;5040616;28;20188;-74
2022/05/01 23:58:24;;;;;;;13.10;5.60;;;14.80;99.90;;;;;;5042835;28;20621;-74
